Time;durP1;ratioP1;P1;durP2;ratioP2;P2;SDS_P1;SDS_P2;PMS_P1;PMS_P2;Temp;Humidity;BMP_temperature;BMP_pressure;BME280_temperature;BME280_humidity;BME280_pressure;Samples;Min_cycle;Max_cycle;Signal;HPM_P1;HPM_P2
2022/03/15 00:02:19;;;;;;;;;;;;;;;5.95;100.00;102765.44;5094654;28;20339;-80
2022/03/15 00:04:44;;;;;;;;;;;;;;;5.95;100.00;102768.03;5076617;28;19927;-79
2022/03/15 00:07:15;;;;;;;;;;;;;;;5.94;100.00;102760.97;5076643;28;19974;-79
2022/03/15 00:09:46;;;;;;;;;;;;;;;5.95;100.00;102760.19;5076794;28;20011;-79
2022/03/15 00:12:12;;;;;;;;;;;;;;;5.93;100.00;102760.06;5076639;28;19998;-81
2022/03/15 00:14:37;;;;;;;;;;;;;;;5.97;100.00;102752.53;5076788;28;19920;-80
2022/03/15 00:17:05;;;;;;;;;;;;;;;5.94;100.00;102747.91;5076242;28;19923;-80
2022/03/15 00:19:30;;;;;;;;;;;;;;;5.96;100.00;102742.81;5094674;28;19919;-80
2022/03/15 00:22:05;;;;;;;;;;;;;;;5.96;100.00;102748.03;5076417;28;19916;-79
2022/03/15 00:24:31;;;;;;;;;;;;;;;5.94;100.00;102742.66;5077113;28;20356;-80
2022/03/15 00:26:57;;;;;;;;;;;;;;;5.96;100.00;102735.84;5076343;28;19927;-79
2022/03/15 00:29:23;;;;;;;;;;;;;;;5.93;100.00;102744.38;5076532;28;20275;-79
2022/03/15 00:31:58;;;;;;;;;;;;;;;5.92;100.00;102741.63;5076469;28;20003;-80
2022/03/15 00:34:23;;;;;;;;;;;;;;;5.96;100.00;102750.66;5076594;28;19920;-79
2022/03/15 00:36:49;;;;;;;;;;;;;;;5.96;100.00;102743.69;5096952;28;19939;-80
2022/03/15 00:39:16;;;;;;;;;;;;;;;5.90;100.00;102743.19;5079642;28;19924;-79
2022/03/15 00:41:43;;;;;;;;;;;;;;;5.88;100.00;102740.44;5080074;28;19962;-78
2022/03/15 00:44:09;;;;;;;;;;;;;;;5.87;100.00;102745.53;5079999;28;19920;-79
2022/03/15 00:46:35;;;;;;;;;;;;;;;5.84;100.00;102740.97;5080010;28;19924;-79
2022/03/15 00:49:00;;;;;;;;;;;;;;;5.82;100.00;102741.63;5079801;28;19926;-80
2022/03/15 00:51:34;;;;;;;;;;;;;;;5.80;100.00;102735.34;5080617;28;19920;-80
2022/03/15 00:53:59;;;;;;;;;;;;;;;5.73;100.00;102740.06;5080046;28;19927;-79
2022/03/15 00:56:25;;;;;;;;;;;;;;;5.71;100.00;102740.69;5079873;28;19924;-79
2022/03/15 00:58:50;;;;;;;;;;;;;;;5.69;100.00;102730.13;5079534;28;19920;-80
2022/03/15 01:01:18;;;;;;;;;;;;;;;5.69;100.00;102722.28;5097483;28;19927;-79
2022/03/15 01:03:43;;;;;;;;;;;;;;;5.69;100.00;102722.28;5098000;28;19917;-79
2022/03/15 01:06:09;;;;;;;;;;;;;;;5.68;100.00;102720.44;5079720;28;19920;-80
2022/03/15 01:08:34;;;;;;;;;;;;;;;5.68;100.00;102720.44;5098014;28;20494;-80
2022/03/15 01:11:03;;;;;;;;;;;;;;;5.69;100.00;102717.03;5079722;28;19916;-79
2022/03/15 01:13:28;;;;;;;;;;;;;;;5.71;100.00;102712.84;5080180;28;19935;-80
2022/03/15 01:15:53;;;;;;;;;;;;;;;5.72;100.00;102713.78;5079503;28;19924;-79
2022/03/15 01:18:19;;;;;;;;;;;;;;;5.73;100.00;102712.97;5080032;28;20351;-79
2022/03/15 01:20:46;;;;;;;;;;;;;;;5.71;100.00;102707.63;5079919;28;19978;-79
2022/03/15 01:23:11;;;;;;;;;;;;;;;5.61;100.00;102707.63;5079893;28;19920;-80
2022/03/15 01:25:37;;;;;;;;;;;;;;;5.57;100.00;102700.31;5079879;28;19928;-80
2022/03/15 01:28:03;;;;;;;;;;;;;;;5.57;100.00;102697.69;5079433;28;19927;-79
2022/03/15 01:30:32;;;;;;;;;;;;;;;5.61;100.00;102696.25;5079365;28;20382;-80
2022/03/15 01:32:57;;;;;;;;;;;;;;;5.64;100.00;102687.00;5097389;28;19926;-80
2022/03/15 01:35:23;;;;;;;;;;;;;;;5.66;100.00;102689.75;5078856;28;19980;-78
2022/03/15 01:37:48;;;;;;;;;;;;;;;5.66;100.00;102681.91;5077403;28;19950;-79
2022/03/15 01:40:14;;;;;;;;;;;;;;;5.70;100.00;102671.84;5077951;28;20041;-80
2022/03/15 01:42:40;;;;;;;;;;;;;;;5.60;100.00;102677.06;5078829;28;20359;-80
2022/03/15 01:45:06;;;;;;;;;;;;;;;5.62;100.00;102688.53;5078512;28;19927;-80
2022/03/15 01:47:31;;;;;;;;;;;;;;;5.69;100.00;102670.00;5078753;28;19920;-79
2022/03/15 01:50:00;;;;;;;;;;;;;;;5.75;100.00;102680.97;5078559;28;19947;-80
2022/03/15 01:52:25;;;;;;;;;;;;;;;5.81;100.00;102680.59;5078976;28;19924;-80
2022/03/15 01:54:50;;;;;;;;;;;;;;;5.86;100.00;102678.38;5097044;28;19920;-80
2022/03/15 01:57:16;;;;;;;;;;;;;;;5.85;100.00;102671.28;5095973;28;19973;-79
2022/03/15 01:59:44;;;;;;;;;;;;;;;5.90;100.00;102672.59;5078857;28;20010;-78
2022/03/15 02:02:10;;;;;;;;;;;;;;;5.92;100.00;102665.81;5096616;28;20484;-81
2022/03/15 02:04:38;;;;;;;;;;;;;;;5.97;100.00;102666.22;5096402;28;19973;-80
2022/03/15 02:07:07;;;;;;;;;;;;;;;5.99;100.00;102668.16;5078377;28;19982;-80
2022/03/15 02:09:32;;;;;;;;;;;;;;;6.04;100.00;102669.44;5078807;28;19920;-79
2022/03/15 02:11:58;;;;;;;;;;;;;;;6.07;100.00;102666.19;5078400;28;19920;-80
2022/03/15 02:14:24;;;;;;;;;;;;;;;6.04;100.00;102658.09;5078380;28;20052;-80
2022/03/15 02:16:49;;;;;;;;;;;;;;;6.05;100.00;102646.84;5078604;28;20010;-79
2022/03/15 02:19:14;;;;;;;;;;;;;;;6.00;100.00;102656.03;5096506;28;19947;-81
2022/03/15 02:21:48;;;;;;;;;;;;;;;6.00;100.00;102650.78;5078464;28;20367;-80
2022/03/15 02:24:13;;;;;;;;;;;;;;;5.98;100.00;102639.25;5078060;28;20121;-80
2022/03/15 02:26:39;;;;;;;;;;;;;;;5.96;100.00;102641.72;5077832;28;19920;-81
2022/03/15 02:29:04;;;;;;;;;;;;;;;5.94;100.00;102632.84;5077544;28;20360;-80
2022/03/15 02:31:30;;;;;;;;;;;;;;;5.90;100.00;102620.28;5095500;28;19927;-78
2022/03/15 02:33:55;;;;;;;;;;;;;;;5.90;100.00;102617.66;5077512;28;19924;-80
2022/03/15 02:36:20;;;;;;;;;;;;;;;5.85;100.00;102613.78;5078097;28;20020;-80
2022/03/15 02:38:46;;;;;;;;;;;;;;;5.73;100.00;102617.19;5077894;28;20382;-78
2022/03/15 02:41:13;;;;;;;;;;;;;;;5.78;100.00;102612.34;5096129;28;19927;-78
2022/03/15 02:43:39;;;;;;;;;;;;;;;5.69;100.00;102606.34;5096279;28;19920;-78
2022/03/15 02:46:04;;;;;;;;;;;;;;;5.74;100.00;102605.03;5095795;28;20248;-79
2022/03/15 02:48:29;;;;;;;;;;;;;;;5.74;100.00;102591.97;5096212;28;19920;-79
2022/03/15 02:51:08;;;;;;;;;;;;;;;5.69;100.00;102593.28;5077846;28;20007;-80
2022/03/15 02:53:37;;;;;;;;;;;;;;;5.62;100.00;102597.06;5078161;28;19958;-79
2022/03/15 02:56:04;;;;;;;;;;;;;;;5.60;100.00;102595.13;5075786;28;19926;-79
2022/03/15 02:58:30;;;;;;;;;;;;;;;5.60;100.00;102590.81;5095220;28;19924;-78
2022/03/15 03:00:56;;;;;;;;;;;;;;;5.59;100.00;102578.50;5077743;28;19923;-79
2022/03/15 03:03:23;;;;;;;;;;;;;;;5.55;100.00;102582.59;5077746;28;19951;-79
2022/03/15 03:05:48;;;;;;;;;;;;;;;5.53;100.00;102589.38;5077950;28;20266;-78
2022/03/15 03:08:16;;;;;;;;;;;;;;;5.52;100.00;102582.31;5077921;28;20038;-79
2022/03/15 03:10:42;;;;;;;;;;;;;;;5.57;100.00;102594.06;5077657;28;19963;-78
2022/03/15 03:13:08;;;;;;;;;;;;;;;5.62;100.00;102594.44;5077280;28;19924;-78
2022/03/15 03:15:33;;;;;;;;;;;;;;;5.63;100.00;102598.00;5077681;28;19962;-81
2022/03/15 03:17:59;;;;;;;;;;;;;;;5.64;100.00;102595.53;5077141;28;20010;-80
2022/03/15 03:20:27;;;;;;;;;;;;;;;5.63;100.00;102593.69;5077299;28;19950;-79
2022/03/15 03:22:53;;;;;;;;;;;;;;;5.67;100.00;102601.00;5077496;28;19962;-79
2022/03/15 03:25:19;;;;;;;;;;;;;;;5.65;100.00;102589.47;5077459;28;20003;-78
2022/03/15 03:27:46;;;;;;;;;;;;;;;5.66;100.00;102595.66;5095509;28;20570;-78
2022/03/15 03:30:15;;;;;;;;;;;;;;;5.64;100.00;102578.91;5077051;28;19948;-79
2022/03/15 03:32:41;;;;;;;;;;;;;;;5.70;100.00;102576.78;5077199;28;20069;-78
2022/03/15 03:35:06;;;;;;;;;;;;;;;5.69;100.00;102577.59;5076915;28;19959;-79
2022/03/15 03:37:32;;;;;;;;;;;;;;;5.68;100.00;102584.50;5077020;28;20277;-77
2022/03/15 03:39:59;;;;;;;;;;;;;;;5.72;100.00;102581.38;5076597;28;19924;-77
2022/03/15 03:42:24;;;;;;;;;;;;;;;5.72;100.00;102576.16;5076863;28;19959;-78
2022/03/15 03:44:50;;;;;;;;;;;;;;;5.75;100.00;102571.19;5076920;28;19920;-77
2022/03/15 03:47:15;;;;;;;;;;;;;;;5.75;100.00;102571.19;5076650;28;19920;-78
2022/03/15 03:49:41;;;;;;;;;;;;;;;5.77;100.00;102570.41;5075112;28;20391;-79
2022/03/15 03:52:07;;;;;;;;;;;;;;;5.73;100.00;102572.75;5093516;28;20011;-78
2022/03/15 03:54:33;;;;;;;;;;;;;;;5.72;100.00;102565.69;5076925;28;20378;-79
2022/03/15 03:56:58;;;;;;;;;;;;;;;5.80;100.00;102565.44;5093356;28;19929;-79
2022/03/15 03:59:23;;;;;;;;;;;;;;;5.80;100.00;102565.44;5094901;28;20321;-79
2022/03/15 04:01:50;;;;;;;;;;;;;;;5.82;100.00;102569.06;5093824;28;19927;-78
2022/03/15 04:04:15;;;;;;;;;;;;;;;5.84;100.00;102564.88;5093193;28;20045;-78
2022/03/15 04:06:41;;;;;;;;;;;;;;;5.85;100.00;102564.09;5076836;28;19955;-79
2022/03/15 04:09:09;;;;;;;;;;;;;;;5.84;100.00;102570.09;5076576;28;19924;-79
2022/03/15 04:11:44;;;;;;;;;;;;;;;5.80;100.00;102575.88;5080673;28;20002;-79
2022/03/15 04:14:11;;;;;;;;;;;;;;;5.74;100.00;102578.91;5080359;28;20194;-79
2022/03/15 04:16:37;;;;;;;;;;;;;;;5.72;100.00;102565.69;5098406;28;19920;-79
2022/03/15 04:19:02;;;;;;;;;;;;;;;5.71;100.00;102563.84;5098223;28;19927;-79
2022/03/15 04:21:28;;;;;;;;;;;;;;;5.67;100.00;102567.03;5080341;28;19973;-79
2022/03/15 04:23:54;;;;;;;;;;;;;;;5.71;100.00;102566.47;5080346;28;19943;-78
2022/03/15 04:26:20;;;;;;;;;;;;;;;5.70;100.00;102561.13;5080320;28;19927;-78
2022/03/15 04:28:45;;;;;;;;;;;;;;;5.67;100.00;102561.78;5079994;28;20019;-77
2022/03/15 04:31:14;;;;;;;;;;;;;;;5.68;100.00;102561.00;5079792;28;19923;-78
2022/03/15 04:33:40;;;;;;;;;;;;;;;5.65;100.00;102565.97;5098092;28;19975;-78
2022/03/15 04:36:06;;;;;;;;;;;;;;;5.63;100.00;102554.47;5079864;28;20024;-78
2022/03/15 04:38:31;;;;;;;;;;;;;;;5.65;100.00;102563.34;5097673;28;19927;-77
2022/03/15 04:41:11;;;;;;;;;;;;;;;5.67;100.00;102564.41;5097787;28;19992;-77
2022/03/15 04:43:36;;;;;;;;;;;;;;;5.67;100.00;102567.03;5080157;28;19916;-78
2022/03/15 04:46:01;;;;;;;;;;;;;;;5.69;100.00;102565.44;5079644;28;19927;-78
2022/03/15 04:48:27;;;;;;;;;;;;;;;5.68;100.00;102565.31;5080239;28;19959;-78
2022/03/15 04:50:53;;;;;;;;;;;;;;;5.69;100.00;102569.75;5080010;28;19963;-79
2022/03/15 04:53:21;;;;;;;;;;;;;;;5.70;100.00;102562.06;5097907;28;20275;-80
2022/03/15 04:55:46;;;;;;;;;;;;;;;5.73;100.00;102563.97;5079980;28;19927;-80
2022/03/15 04:58:12;;;;;;;;;;;;;;;5.70;100.00;102568.97;5079604;28;19920;-80
2022/03/15 05:00:38;;;;;;;;;;;;;;;5.66;100.00;102559.06;5097977;28;19920;-79
2022/03/15 05:03:03;;;;;;;;;;;;;;;5.64;100.00;102558.94;5078449;28;19920;-80
2022/03/15 05:05:28;;;;;;;;;;;;;;;5.64;100.00;102553.69;5079837;28;19946;-80
2022/03/15 05:07:54;;;;;;;;;;;;;;;5.64;100.00;102553.69;5079768;28;19920;-80
2022/03/15 05:13:18;;;;;;;;;;;;;;;5.62;100.00;102544.78;5097235;28;19966;-80
2022/03/15 05:15:43;;;;;;;;;;;;;;;5.63;100.00;102541.41;5079810;28;19920;-79
2022/03/15 05:18:08;;;;;;;;;;;;;;;5.65;100.00;102547.66;5097197;28;20284;-80
2022/03/15 05:20:43;;;;;;;;;;;;;;;5.63;100.00;102544.03;5097426;28;19924;-79
2022/03/15 05:23:08;;;;;;;;;;;;;;;5.62;100.00;102541.28;5078420;28;19955;-79
2022/03/15 05:25:34;;;;;;;;;;;;;;;5.61;100.00;102545.59;5079931;28;19924;-80
2022/03/15 05:27:59;;;;;;;;;;;;;;;5.62;100.00;102547.41;5097011;28;19916;-79
2022/03/15 05:30:28;;;;;;;;;;;;;;;5.62;100.00;102554.34;5079184;28;19924;-79
2022/03/15 05:32:53;;;;;;;;;;;;;;;5.58;100.00;102556.69;5078891;28;19924;-80
2022/03/15 05:35:19;;;;;;;;;;;;;;;5.61;100.00;102561.28;5097098;28;19928;-78
2022/03/15 05:37:44;;;;;;;;;;;;;;;5.58;100.00;102559.31;5079498;28;20568;-78
2022/03/15 05:40:10;;;;;;;;;;;;;;;5.57;100.00;102565.31;5078825;28;19931;-79
2022/03/15 05:42:35;;;;;;;;;;;;;;;5.54;100.00;102561.53;5078614;28;20016;-78
2022/03/15 05:45:01;;;;;;;;;;;;;;;5.52;100.00;102560.50;5096729;28;19924;-79
2022/03/15 05:47:27;;;;;;;;;;;;;;;5.51;100.00;102548.22;5078922;28;19924;-79
2022/03/15 05:49:53;;;;;;;;;;;;;;;5.51;100.00;102556.97;5078804;28;20380;-77
2022/03/15 05:52:18;;;;;;;;;;;;;;;5.50;100.00;102552.53;5096705;28;19920;-79
2022/03/15 05:54:43;;;;;;;;;;;;;;;5.48;100.00;102547.97;5096399;28;19920;-78
2022/03/15 05:57:09;;;;;;;;;;;;;;;5.52;100.00;102543.13;5096069;28;20348;-78
2022/03/15 05:59:34;;;;;;;;;;;;;;;5.49;100.00;102541.97;5096866;28;20069;-79
2022/03/15 06:01:59;;;;;;;;;;;;;;;5.46;100.00;102540.00;5078277;28;19920;-79
2022/03/15 06:04:26;;;;;;;;;;;;;;;5.45;100.00;102543.38;5077316;28;19923;-79
2022/03/15 06:06:55;;;;;;;;;;;;;;;5.43;100.00;102534.50;5077435;28;20379;-79
2022/03/15 06:09:21;;;;;;;;;;;;;;;5.41;100.00;102554.38;5096921;28;19920;-79
2022/03/15 06:11:48;;;;;;;;;;;;;;;5.44;100.00;102557.25;5076715;28;20093;-79
2022/03/15 06:14:13;;;;;;;;;;;;;;;5.44;100.00;102543.25;5077095;28;19924;-79
2022/03/15 06:16:38;;;;;;;;;;;;;;;5.45;100.00;102552.94;5078100;28;20249;-78
2022/03/15 06:19:04;;;;;;;;;;;;;;;5.45;100.00;102547.72;5078219;28;19973;-78
2022/03/15 06:21:35;;;;;;;;;;;;;;;5.46;100.00;102547.84;5096020;28;20222;-79
2022/03/15 06:24:00;;;;;;;;;;;;;;;5.48;100.00;102551.47;5077856;28;19916;-79
2022/03/15 06:26:26;;;;;;;;;;;;;;;5.47;100.00;102547.06;5077393;28;20264;-79
2022/03/15 06:28:51;;;;;;;;;;;;;;;5.46;100.00;102539.09;5076892;28;19926;-79
2022/03/15 06:31:17;;;;;;;;;;;;;;;5.52;100.00;102544.84;5077359;28;19923;-79
2022/03/15 06:33:43;;;;;;;;;;;;;;;5.52;100.00;102547.44;5077012;28;19927;-79
2022/03/15 06:36:11;;;;;;;;;;;;;;;5.51;100.00;102541.28;5077824;28;19921;-78
2022/03/15 06:38:37;;;;;;;;;;;;;;;5.51;100.00;102543.00;5094827;28;19932;-78
2022/03/15 06:41:03;;;;;;;;;;;;;;;5.53;100.00;102542.34;5077632;28;19924;-79
2022/03/15 06:43:28;;;;;;;;;;;;;;;5.57;100.00;102543.50;5077965;28;20003;-79
2022/03/15 06:45:53;;;;;;;;;;;;;;;5.56;100.00;102532.16;5095495;28;19952;-79
2022/03/15 06:48:19;;;;;;;;;;;;;;;5.61;100.00;102535.16;5095818;28;19916;-78
2022/03/15 06:50:44;;;;;;;;;;;;;;;5.63;100.00;102530.06;5078112;28;20266;-79
2022/03/15 06:53:10;;;;;;;;;;;;;;;5.65;100.00;102531.97;5095172;28;19919;-79
2022/03/15 06:55:35;;;;;;;;;;;;;;;5.66;100.00;102532.91;5095586;28;20414;-80
2022/03/15 06:58:00;;;;;;;;;;;;;;;5.71;100.00;102537.72;5076807;28;19993;-77
2022/03/15 07:00:26;;;;;;;;;;;;;;;5.75;100.00;102538.91;5077141;28;20321;-79
2022/03/15 07:02:52;;;;;;;;;;;;;;;5.77;100.00;102525.97;5095280;28;19927;-80
2022/03/15 07:05:17;;;;;;;;;;;;;;;5.80;100.00;102526.22;5077189;28;19920;-81
2022/03/15 07:07:42;;;;;;;;;;;;;;;5.83;100.00;102527.38;5077638;28;20456;-81
2022/03/15 07:10:11;;;;;;;;;;;;;;;5.80;100.00;102527.13;5093644;28;19920;-80
2022/03/15 07:12:36;;;;;;;;;;;;;;;5.82;100.00;102522.91;5076429;28;19928;-78
2022/03/15 07:15:03;;;;;;;;;;;;;;;5.84;100.00;102513.53;5076074;28;19920;-81
2022/03/15 07:17:30;;;;;;;;;;;;;;;5.86;100.00;102514.56;5076080;28;20117;-82
2022/03/15 07:19:56;;;;;;;;;;;;;;;5.92;100.00;102514.16;5074538;28;19968;-78
2022/03/15 07:22:22;;;;;;;;;;;;;;;5.97;100.00;102514.56;5055680;28;19958;-83
2022/03/15 07:24:48;;;;;;;;;;;;;;;5.96;100.00;102513.59;5039614;28;20264;-82
2022/03/15 07:27:14;;;;;;;;;;;;;;;5.93;100.00;102514.28;5050901;28;20023;-80
2022/03/15 07:29:39;;;;;;;;;;;;;;;6.04;100.00;102509.91;5055439;28;19979;-79
2022/03/15 07:32:04;;;;;;;;;;;;;;;6.08;100.00;102513.72;5072782;28;20344;-80
2022/03/15 07:34:30;;;;;;;;;;;;;;;6.11;100.00;102511.34;5035116;28;19932;-80
2022/03/15 07:36:55;;;;;;;;;;;;;;;6.16;100.00;102514.34;5053019;28;19955;-78
2022/03/15 07:39:21;;;;;;;;;;;;;;;6.11;100.00;102507.00;5057212;28;19947;-82
2022/03/15 07:41:53;;;;;;;;;;;;;;;6.14;100.00;102508.03;5051191;28;19928;-84
2022/03/15 07:44:19;;;;;;;;;;;;;;;6.18;100.00;102512.75;5052553;28;19921;-80
2022/03/15 07:46:48;;;;;;;;;;;;;;;6.25;100.00;102517.69;5072862;28;19927;-82
2022/03/15 07:49:20;;;;;;;;;;;;;;;6.25;100.00;102513.34;5055435;28;20353;-77
2022/03/15 07:51:47;;;;;;;;;;;;;;;6.32;100.00;102513.84;5057283;28;19936;-82
2022/03/15 07:54:12;;;;;;;;;;;;;;;6.32;100.00;102514.75;5053329;28;19953;-82
2022/03/15 07:56:38;;;;;;;;;;;;;;;6.32;100.00;102509.53;5036113;28;19956;-82
2022/03/15 07:59:03;;;;;;;;;;;;;;;6.33;100.00;102508.75;5036195;28;19921;-78
2022/03/15 08:01:28;;;;;;;;;;;;;;;6.39;100.00;102506.63;5036490;28;19921;-79
2022/03/15 08:03:55;;;;;;;;;;;;;;;6.44;100.00;102499.13;5035110;28;20139;-79
2022/03/15 08:06:20;;;;;;;;;;;;;;;6.53;100.00;102499.84;5035308;28;20039;-80
2022/03/15 08:08:46;;;;;;;;;;;;;;;6.50;100.00;102498.72;5036410;28;19952;-80
2022/03/15 08:11:11;;;;;;;;;;;;;;;6.55;100.00;102493.03;5034797;28;19921;-80
2022/03/15 08:13:36;;;;;;;;;;;;;;;6.60;100.00;102493.38;5036210;28;19964;-77
2022/03/15 08:16:02;;;;;;;;;;;;;;;6.56;100.00;102491.34;5035974;28;19987;-80
2022/03/15 08:18:28;;;;;;;;;;;;;;;6.67;100.00;102493.09;5035188;28;19921;-83
2022/03/15 08:20:53;;;;;;;;;;;;;;;6.64;100.00;102488.50;5035847;28;20383;-80
2022/03/15 08:23:20;;;;;;;;;;;;;;;6.77;100.00;102489.47;5035453;28;19936;-81
2022/03/15 08:25:45;;;;;;;;;;;;;;;6.85;100.00;102495.28;5036964;28;19988;-80
2022/03/15 08:28:11;;;;;;;;;;;;;;;6.89;100.00;102495.66;5035913;28;20325;-80
2022/03/15 08:30:36;;;;;;;;;;;;;;;7.03;100.00;102491.47;5035669;28;19947;-80
2022/03/15 08:33:01;;;;;;;;;;;;;;;7.16;100.00;102496.88;5044303;28;19920;-81
2022/03/15 08:35:26;;;;;;;;;;;;;;;7.21;100.00;102493.66;5059365;28;20009;-81
2022/03/15 08:37:52;;;;;;;;;;;;;;;7.21;100.00;102483.19;5058237;28;20364;-81
2022/03/15 08:40:19;;;;;;;;;;;;;;;7.24;100.00;102484.34;5058810;28;19920;-81
2022/03/15 08:42:45;;;;;;;;;;;;;;;7.32;100.00;102490.19;5059089;28;20356;-80
2022/03/15 08:45:10;;;;;;;;;;;;;;;7.44;100.00;102485.84;5057959;28;19955;-81
2022/03/15 08:47:36;;;;;;;;;;;;;;;7.45;100.00;102478.88;5058306;28;19921;-81
2022/03/15 08:50:05;;;;;;;;;;;;;;;7.65;100.00;102488.25;5076501;28;19920;-80
2022/03/15 08:52:31;;;;;;;;;;;;;;;7.59;100.00;102495.66;5075921;28;19920;-79
2022/03/15 08:54:56;;;;;;;;;;;;;;;7.52;100.00;102492.56;5041553;28;20349;-77
2022/03/15 08:57:23;;;;;;;;;;;;;;;7.47;100.00;102487.78;5056853;28;20003;-79
2022/03/15 08:59:49;;;;;;;;;;;;;;;7.52;100.00;102489.94;5057560;28;19926;-79
2022/03/15 09:02:16;;;;;;;;;;;;;;;7.57;100.00;102489.34;5058393;28;19921;-82
2022/03/15 09:04:41;;;;;;;;;;;;;;;7.61;100.00;102492.31;5058332;28;20015;-83
2022/03/15 09:07:07;;;;;;;;;;;;;;;7.61;100.00;102494.03;5040375;28;19963;-81
2022/03/15 09:09:32;;;;;;;;;;;;;;;7.64;100.00;102487.31;5058092;28;19946;-82
2022/03/15 09:11:57;;;;;;;;;;;;;;;7.64;100.00;102492.56;5076100;28;20378;-81
2022/03/15 09:14:23;;;;;;;;;;;;;;;7.63;100.00;102495.06;5057873;28;19920;-82
2022/03/15 09:16:48;;;;;;;;;;;;;;;7.57;100.00;102494.59;5076126;28;20345;-83
2022/03/15 09:19:13;;;;;;;;;;;;;;;7.64;100.00;102489.94;5041319;28;19932;-82
2022/03/15 09:21:39;;;;;;;;;;;;;;;7.67;100.00;102489.25;5057261;28;19943;-82
2022/03/15 09:24:04;;;;;;;;;;;;;;;7.67;100.00;102484.00;5058014;28;20039;-82
2022/03/15 09:26:31;;;;;;;;;;;;;;;7.75;100.00;102479.34;5075019;28;19963;-78
2022/03/15 09:28:57;;;;;;;;;;;;;;;7.84;100.00;102480.91;5057797;28;19916;-79
2022/03/15 09:31:24;;;;;;;;;;;;;;;7.91;100.00;102477.94;5058201;28;19999;-82
2022/03/15 09:33:49;;;;;;;;;;;;;;;7.99;100.00;102472.34;5057209;28;19920;-79
2022/03/15 09:36:15;;;;;;;;;;;;;;;8.05;100.00;102472.81;5057127;28;19928;-78
2022/03/15 09:38:40;;;;;;;;;;;;;;;8.07;100.00;102460.69;5056867;28;19921;-78
2022/03/15 09:41:06;;;;;;;;;;;;;;;8.21;100.00;102465.22;5074333;28;20272;-77
2022/03/15 09:43:34;;;;;;;;;;;;;;;8.30;100.00;102457.09;5057506;28;20210;-78
2022/03/15 09:46:00;;;;;;;;;;;;;;;8.31;100.00;102455.38;5074610;28;19921;-76
2022/03/15 09:48:26;;;;;;;;;;;;;;;8.35;100.00;102450.44;5074515;28;20011;-79
2022/03/15 09:50:52;;;;;;;;;;;;;;;8.39;100.00;102454.19;5057155;28;20003;-78
2022/03/15 09:53:19;;;;;;;;;;;;;;;8.46;100.00;102448.59;5055993;28;19979;-78
2022/03/15 09:55:45;;;;;;;;;;;;;;;8.44;100.00;102444.97;5056311;28;20474;-80
2022/03/15 09:58:17;;;;;;;;;;;;;;;8.27;100.00;102457.78;5056426;28;20352;-79
2022/03/15 10:00:44;;;;;;;;;;;;;;;8.31;100.00;102450.13;5056825;28;20011;-80
2022/03/15 10:03:09;;;;;;;;;;;;;;;8.25;100.00;102437.50;5056371;28;20250;-77
2022/03/15 10:05:35;;;;;;;;;;;;;;;8.22;100.00;102429.41;5040380;28;19935;-80
2022/03/15 10:08:00;;;;;;;;;;;;;;;8.26;100.00;102429.72;5055861;28;19920;-78
2022/03/15 10:10:26;;;;;;;;;;;;;;;8.25;100.00;102417.41;5055869;28;19920;-82
2022/03/15 10:12:51;;;;;;;;;;;;;;;8.22;100.00;102418.91;5056791;28;19925;-77
2022/03/15 10:15:19;;;;;;;;;;;;;;;8.29;100.00;102422.88;5073994;28;19927;-81
2022/03/15 10:17:53;;;;;;;;;;;;;;;8.17;100.00;102421.19;5056531;28;19924;-77
2022/03/15 10:20:21;;;;;;;;;;;;;;;8.29;100.00;102420.25;5057113;28;19921;-78
2022/03/15 10:22:57;;;;;;;;;;;;;;;8.31;100.00;102416.00;5054375;28;19921;-78
2022/03/15 10:25:22;;;;;;;;;;;;;;;8.43;100.00;102402.03;5056732;28;20422;-77
2022/03/15 10:27:52;;;;;;;;;;;;;;;8.61;100.00;102402.41;5074335;28;19924;-78
2022/03/15 10:30:17;;;;;;;;;;;;;;;8.59;100.00;102401.41;5055718;28;19920;-79
2022/03/15 10:32:42;;;;;;;;;;;;;;;8.52;100.00;102390.38;5056192;28;20368;-79
2022/03/15 10:35:08;;;;;;;;;;;;;;;8.48;100.00;102391.84;5056298;28;20435;-78
2022/03/15 10:37:35;;;;;;;;;;;;;;;8.53;100.00;102397.44;5074010;28;19927;-79
2022/03/15 10:40:01;;;;;;;;;;;;;;;8.65;100.00;102387.75;5074365;28;19928;-78
2022/03/15 10:42:26;;;;;;;;;;;;;;;8.84;100.00;102379.44;5056570;28;19917;-78
2022/03/15 10:44:52;;;;;;;;;;;;;;;9.09;100.00;102378.44;5055926;28;19924;-78
2022/03/15 10:47:21;;;;;;;;;;;;;;;9.22;100.00;102377.53;5074239;28;20007;-78
2022/03/15 10:49:51;;;;;;;;;;;;;;;9.47;100.00;102374.78;5040214;28;19990;-78
2022/03/15 10:52:34;;;;;;;;;;;;;;;9.79;100.00;102366.34;5055807;28;19924;-77
2022/03/15 10:55:17;;;;;;;;;;;;;;;9.84;100.00;102361.38;5073769;28;19951;-78
2022/03/15 10:57:45;;;;;;;;;;;;;;;9.93;100.00;102367.22;5055981;28;19995;-78
2022/03/15 11:00:12;;;;;;;;;;;;;;;9.82;100.00;102356.00;5073251;28;20352;-78
2022/03/15 11:02:41;;;;;;;;;;;;;;;10.21;100.00;102354.03;5074233;28;19924;-78
2022/03/15 11:05:06;;;;;;;;;;;;;;;10.35;100.00;102351.38;5055390;28;19924;-79
2022/03/15 11:07:38;;;;;;;;;;;;;;;10.05;100.00;102339.03;5073542;28;19928;-78
2022/03/15 11:10:10;;;;;;;;;;;;;;;9.99;100.00;102340.34;5072889;28;19927;-78
2022/03/15 11:12:35;;;;;;;;;;;;;;;10.09;100.00;102331.31;5055332;28;20296;-79
2022/03/15 11:15:01;;;;;;;;;;;;;;;10.33;100.00;102331.94;5056116;28;20383;-78
2022/03/15 11:17:27;;;;;;;;;;;;;;;10.46;100.00;102323.06;5055509;28;19999;-78
2022/03/15 11:19:54;;;;;;;;;;;;;;;10.53;100.00;102315.63;5073509;28;19920;-78
2022/03/15 11:22:22;;;;;;;;;;;;;;;10.56;100.00;102315.78;5073519;28;20421;-79
2022/03/15 11:25:04;;;;;;;;;;;;;;;10.49;100.00;102308.34;5055237;28;20495;-78
2022/03/15 11:27:36;;;;;;;;;;;;;;;10.59;100.00;102307.16;5055752;28;19920;-78
2022/03/15 11:30:05;;;;;;;;;;;;;;;10.69;100.00;102311.22;5055407;28;20225;-78
2022/03/15 11:32:32;;;;;;;;;;;;;;;11.09;100.00;102303.94;5072885;28;19944;-78
2022/03/15 11:34:57;;;;;;;;;;;;;;;10.94;100.00;102308.31;5055776;28;20546;-78
2022/03/15 11:37:22;;;;;;;;;;;;;;;11.06;100.00;102302.84;5072967;28;19952;-78
2022/03/15 11:39:49;;;;;;;;;;;;;;;11.09;100.00;102296.03;5054642;28;20086;-78
2022/03/15 11:42:16;;;;;;;;;;;;;;;11.14;100.00;102301.56;5055383;28;20326;-78
2022/03/15 11:44:54;;;;;;;;;;;;;;;11.38;100.00;102291.47;5055772;28;19971;-78
2022/03/15 11:47:42;;;;;;;;;;;;;;;11.65;100.00;102291.16;5054945;28;19963;-78
2022/03/15 11:50:18;;;;;;;;;;;;;;;11.60;100.00;102282.09;5035358;28;19956;-78
2022/03/15 11:52:52;;;;;;;;;;;;;;;11.79;100.00;102284.94;5038397;28;19983;-79
2022/03/15 11:55:31;;;;;;;;;;;;;;;11.84;100.00;102293.09;5072808;28;19921;-79
2022/03/15 11:58:01;;;;;;;;;;;;;;;11.60;100.00;102282.09;5054727;28;19959;-79
2022/03/15 12:00:42;;;;;;;;;;;;;;;11.74;100.00;102280.22;5072159;28;19990;-78
2022/03/15 12:03:08;;;;;;;;;;;;;;;11.82;100.00;102281.53;5055038;28;20272;-80
2022/03/15 12:05:44;;;;;;;;;;;;;;;11.98;100.00;102278.94;5072882;28;19923;-78
2022/03/15 12:08:15;;;;;;;;;;;;;;;11.95;100.00;102280.50;5072118;28;19928;-79
2022/03/15 12:10:50;;;;;;;;;;;;;;;11.82;100.00;102277.19;5055056;28;19960;-79
2022/03/15 12:13:15;;;;;;;;;;;;;;;11.86;100.00;102276.50;5055077;28;19928;-78
2022/03/15 12:15:43;;;;;;;;;;;;;;;12.05;100.00;102269.59;5071959;28;19917;-78
2022/03/15 12:18:18;;;;;;;;;;;;;;;12.19;100.00;102265.94;5054594;28;19924;-80
2022/03/15 12:20:46;;;;;;;;;;;;;;;12.11;100.00;102262.00;5054200;28;19928;-78
2022/03/15 12:23:21;;;;;;;;;;;;;;;12.20;100.00;102257.19;5072581;28;19955;-78
2022/03/15 12:25:51;;;;;;;;;;;;;;;12.09;100.00;102254.81;5054673;28;19983;-78
2022/03/15 12:28:24;;;;;;;;;;;;;;;12.27;100.00;102252.22;5053874;28;20264;-79
2022/03/15 12:30:53;;;;;;;;;;;;;;;12.40;100.00;102252.03;5055246;28;19920;-79
2022/03/15 12:33:26;;;;;;;;;;;;;;;12.21;100.00;102253.72;5038817;28;20062;-78
2022/03/15 12:35:57;;;;;;;;;;;;;;;12.31;100.00;102248.94;5054118;28;19920;-79
2022/03/15 12:38:31;;;;;;;;;;;;;;;12.28;100.00;102251.41;5055905;28;20015;-79